Terminal Aerodrome Forecast
Issued by NWS

Home | Current Version | Previous Version | Text Only | Print | Product List | Glossary On
Versions: 1 2 3 4 5 6 7 8 9 10 11 12 13
000
FTUS43 KDDC 301121
TAFHYS
TAF
KHYS 301121Z 3012/3112 31010KT P6SM SKC
     FM301600 34016G22KT P6SM SKC
     FM310000 36010KT P6SM SKC
     FM310900 01010KT P6SM SCT015=

USA.gov is the U.S. government's official web portal to all federal, state and local government web resources and services.